createdAt,value
2022-11-05T00:00:38.589Z,29.50
2022-11-05T00:04:03.719Z,28.50
2022-11-05T00:07:40.864Z,30.43
2022-11-05T00:10:43.313Z,29.33
2022-11-05T00:14:03.750Z,27.93
2022-11-05T00:17:05.891Z,27.80
2022-11-05T00:20:10.133Z,25.83
2022-11-05T00:23:30.688Z,26.77
2022-11-05T00:26:32.519Z,26.87
2022-11-05T00:29:34.952Z,26.37
2022-11-05T00:32:36.856Z,25.67
2022-11-05T00:35:39.067Z,25.80
2022-11-05T00:38:40.911Z,24.63
2022-11-05T00:41:43.057Z,25.00
2022-11-05T00:45:03.045Z,23.47
2022-11-05T00:48:24.051Z,25.57
2022-11-05T00:51:25.944Z,22.90
2022-11-05T00:54:28.074Z,26.03
2022-11-05T00:57:29.926Z,23.47
2022-11-05T01:00:34.873Z,25.33
2022-11-05T01:03:39.292Z,24.13
2022-11-05T01:06:41.398Z,23.57
2022-11-05T01:09:43.230Z,23.73
2022-11-05T01:12:45.478Z,24.77
2022-11-05T01:15:48.517Z,24.20
2022-11-05T01:18:50.670Z,23.70
2022-11-05T01:21:52.579Z,22.80
2022-11-05T01:24:54.740Z,22.83
2022-11-05T01:27:56.660Z,22.20
2022-11-05T01:30:58.811Z,22.87
2022-11-05T01:34:01.249Z,21.87
2022-11-05T01:37:03.480Z,22.10
2022-11-05T01:40:06.665Z,21.67
2022-11-05T01:43:16.319Z,21.10
2022-11-05T01:46:23.554Z,21.30
2022-11-05T01:49:34.099Z,20.87
2022-11-05T01:52:36.202Z,20.47
2022-11-05T01:55:46.180Z,20.50
2022-11-05T01:58:59.007Z,20.37
2022-11-05T02:02:02.566Z,20.87
2022-11-05T02:05:06.659Z,20.17
2022-11-05T02:08:17.865Z,20.37
2022-11-05T02:11:20.403Z,21.43
2022-11-05T02:14:22.640Z,21.70
2022-11-05T02:17:53.040Z,20.77
2022-11-05T02:20:57.931Z,21.07
2022-11-05T02:24:27.751Z,19.03
2022-11-05T02:27:54.311Z,18.63
2022-11-05T02:31:08.205Z,17.10
2022-11-05T02:34:16.669Z,16.83
2022-11-05T02:37:34.060Z,16.07
2022-11-05T02:40:57.732Z,15.00
2022-11-05T02:44:27.264Z,13.10
2022-11-05T02:47:51.733Z,13.83
2022-11-05T02:51:04.703Z,14.00
2022-11-05T02:54:20.051Z,13.83
2022-11-05T02:57:22.610Z,14.27
2022-11-05T03:00:40.437Z,13.77
2022-11-05T03:03:45.966Z,13.57
2022-11-05T03:06:54.187Z,14.00
2022-11-05T03:10:14.874Z,14.27
2022-11-05T03:13:38.861Z,14.03
2022-11-05T03:16:45.254Z,12.97
2022-11-05T03:20:06.618Z,14.73
2022-11-05T03:23:44.288Z,13.53
2022-11-05T03:26:53.656Z,12.70
2022-11-05T03:30:03.341Z,11.53
2022-11-05T03:33:11.841Z,12.13
2022-11-05T03:36:24.175Z,11.50
2022-11-05T03:39:33.020Z,11.73
2022-11-05T03:42:37.708Z,12.13
2022-11-05T03:45:50.533Z,10.40
2022-11-05T03:48:55.418Z,10.87
2022-11-05T03:52:06.495Z,11.13
2022-11-05T03:55:08.552Z,10.40
2022-11-05T03:58:12.992Z,10.03
2022-11-05T04:01:15.431Z,9.90
2022-11-05T04:04:17.724Z,9.87
2022-11-05T04:07:38.733Z,10.07
2022-11-05T04:10:59.804Z,9.33
2022-11-05T04:14:01.640Z,9.97
2022-11-05T04:17:06.709Z,9.70
2022-11-05T04:20:27.979Z,8.47
2022-11-05T04:23:48.962Z,8.33
2022-11-05T04:26:50.836Z,8.10
2022-11-05T04:30:11.660Z,6.97
2022-11-05T04:33:15.857Z,6.83
2022-11-05T04:36:19.582Z,6.03
2022-11-05T04:39:21.756Z,6.27
2022-11-05T04:42:23.988Z,5.30
2022-11-05T04:45:28.309Z,4.87
2022-11-05T04:48:30.450Z,4.00
2022-11-05T04:51:32.367Z,3.40
2022-11-05T04:54:34.525Z,3.03
2022-11-05T04:57:37.592Z,3.30
2022-11-05T05:00:39.747Z,3.00
2022-11-05T05:03:42.216Z,3.23
2022-11-05T05:06:44.508Z,3.37
2022-11-05T05:09:46.406Z,2.67
2022-11-05T05:12:48.854Z,3.50
2022-11-05T05:15:50.963Z,2.90
2022-11-05T05:18:54.550Z,3.30
2022-11-05T05:21:56.501Z,2.70
2022-11-05T05:24:59.971Z,2.70
2022-11-05T05:28:01.811Z,3.20
2022-11-05T05:31:04.133Z,2.90
2022-11-05T05:34:07.480Z,3.10
2022-11-05T05:37:09.725Z,3.43
2022-11-05T05:40:11.859Z,3.23
2022-11-05T05:43:14.107Z,3.23
2022-11-05T05:46:18.117Z,3.07
2022-11-05T05:49:20.257Z,3.00
2022-11-05T05:52:22.099Z,3.17
2022-11-05T05:55:24.419Z,3.10
2022-11-05T05:58:30.763Z,3.10
2022-11-05T06:01:32.985Z,2.90
2022-11-05T06:04:34.920Z,2.30
2022-11-05T06:07:37.616Z,2.40
2022-11-05T06:10:40.249Z,2.40
2022-11-05T06:13:42.514Z,2.17
2022-11-05T06:16:44.515Z,2.10
2022-11-05T06:19:46.827Z,1.60
2022-11-05T06:22:56.135Z,2.20
2022-11-05T06:26:04.936Z,1.30
2022-11-05T06:29:06.942Z,1.63
2022-11-05T06:32:09.165Z,1.47
2022-11-05T06:35:12.129Z,1.60
2022-11-05T06:38:14.240Z,1.50
2022-11-05T06:41:17.381Z,1.40
2022-11-05T06:44:19.570Z,1.43
2022-11-05T06:47:21.543Z,1.63
2022-11-05T06:50:25.378Z,1.70
2022-11-05T06:53:27.535Z,1.33
2022-11-05T06:56:29.717Z,1.40
2022-11-05T06:59:32.145Z,1.57
2022-11-05T07:02:34.293Z,1.90
2022-11-05T07:05:39.595Z,1.57
2022-11-05T07:08:41.812Z,1.70
2022-11-05T07:11:43.716Z,1.70
2022-11-05T07:14:46.046Z,1.60
2022-11-05T07:17:48.051Z,1.50
2022-11-05T07:20:50.299Z,1.70
2022-11-05T07:23:52.240Z,1.87
2022-11-05T07:26:54.517Z,1.80
2022-11-05T07:29:56.431Z,1.80
2022-11-05T07:32:58.760Z,2.30
2022-11-05T07:36:00.652Z,2.03
2022-11-05T07:39:02.850Z,4.33
2022-11-05T07:42:04.901Z,11.73
2022-11-05T07:45:07.570Z,2.10
2022-11-05T07:48:10.023Z,5.07
2022-11-05T07:51:12.247Z,1.60
2022-11-05T07:54:14.102Z,10.80
2022-11-05T07:57:16.263Z,1.80
2022-11-05T08:00:23.780Z,8.07
2022-11-05T08:03:26.014Z,22.30
2022-11-05T08:06:28.062Z,18.03
2022-11-05T08:09:30.258Z,5.37
2022-11-05T08:12:32.651Z,11.30
2022-11-05T08:15:35.738Z,5.43
2022-11-05T08:18:37.834Z,6.03
2022-11-05T08:21:40.451Z,5.83
2022-11-05T08:24:42.283Z,3.67
2022-11-05T08:27:45.721Z,4.20
2022-11-05T08:30:52.017Z,5.47
2022-11-05T08:33:59.684Z,6.70
2022-11-05T08:37:03.609Z,4.50
2022-11-05T08:40:06.409Z,4.37
2022-11-05T08:43:09.962Z,5.07
2022-11-05T08:46:12.570Z,4.77
2022-11-05T08:49:14.396Z,4.32
2022-11-05T08:52:16.620Z,4.90
2022-11-05T08:55:19.033Z,4.87
2022-11-05T08:58:21.195Z,4.75
2022-11-05T09:01:23.228Z,6.00
2022-11-05T09:04:25.496Z,6.63
2022-11-05T09:07:27.397Z,6.88
2022-11-05T09:10:29.658Z,4.90
2022-11-05T09:13:31.580Z,6.00
2022-11-05T09:16:36.797Z,4.43
2022-11-05T09:19:40.037Z,4.70
2022-11-05T09:22:43.613Z,4.13
2022-11-05T09:25:45.743Z,4.07
2022-11-05T09:28:47.971Z,3.92
2022-11-05T09:31:49.940Z,4.05
2022-11-05T09:34:52.133Z,4.28
2022-11-05T09:37:59.696Z,4.53
2022-11-05T09:41:07.389Z,4.30
2022-11-05T09:44:19.998Z,4.38
2022-11-05T09:47:27.624Z,5.90
2022-11-05T09:50:36.545Z,5.87
2022-11-05T09:53:40.943Z,5.60
2022-11-05T09:56:43.521Z,5.38
2022-11-05T10:00:01.512Z,4.85
2022-11-05T10:03:07.837Z,5.63
2022-11-05T10:06:16.855Z,6.72
2022-11-05T10:09:25.327Z,5.13
2022-11-05T10:12:44.328Z,5.45
2022-11-05T10:16:14.732Z,5.88
2022-11-05T10:19:24.181Z,5.13
2022-11-05T10:22:26.279Z,5.60
2022-11-05T10:25:33.984Z,5.03
2022-11-05T10:28:36.640Z,4.50
2022-11-05T10:31:39.897Z,5.40
2022-11-05T10:34:42.775Z,4.78
2022-11-05T10:37:46.839Z,5.38
2022-11-05T10:41:24.689Z,5.05
2022-11-05T10:44:49.688Z,4.93
2022-11-05T10:48:03.623Z,8.65
2022-11-05T10:51:08.083Z,16.58
2022-11-05T10:54:18.160Z,16.08
2022-11-05T10:57:31.449Z,12.63
2022-11-05T11:00:33.432Z,6.88
2022-11-05T11:03:51.266Z,5.47
2022-11-05T11:06:56.009Z,5.10
2022-11-05T11:09:59.609Z,6.15
2022-11-05T11:13:02.059Z,3.88
2022-11-05T11:16:16.621Z,4.10
2022-11-05T11:19:32.889Z,5.38
2022-11-05T11:22:35.103Z,4.15
2022-11-05T11:26:03.981Z,4.40
2022-11-05T11:29:08.594Z,4.30
2022-11-05T11:32:26.684Z,4.30
2022-11-05T11:35:29.362Z,4.30
2022-11-05T11:38:35.089Z,3.72
2022-11-05T11:41:42.011Z,3.50
2022-11-05T11:44:48.016Z,4.72
2022-11-05T11:47:51.563Z,4.95
2022-11-05T11:50:53.650Z,3.80
2022-11-05T11:54:00.749Z,3.78
2022-11-05T11:57:03.307Z,3.35
2022-11-05T12:00:09.879Z,8.95
2022-11-05T12:03:29.498Z,17.10
2022-11-05T12:06:40.563Z,22.13
2022-11-05T12:10:03.226Z,3.35
2022-11-05T12:13:20.806Z,2.60
2022-11-05T12:16:27.150Z,3.33
2022-11-05T12:19:48.925Z,4.25
2022-11-05T12:23:09.555Z,3.95
2022-11-05T12:26:17.940Z,3.75
2022-11-05T12:29:38.326Z,3.17
2022-11-05T12:33:05.475Z,3.08
2022-11-05T12:37:03.940Z,2.90
2022-11-05T12:40:08.960Z,3.17
2022-11-05T12:43:26.072Z,3.45
2022-11-05T12:46:38.227Z,2.92
2022-11-05T12:49:54.017Z,3.20
2022-11-05T12:53:17.478Z,2.92
2022-11-05T12:56:26.772Z,3.55
2022-11-05T12:59:41.628Z,3.50
2022-11-05T13:02:54.025Z,3.78
2022-11-05T13:06:18.931Z,3.28
2022-11-05T13:09:30.155Z,5.20
2022-11-05T13:12:36.468Z,13.10
2022-11-05T13:15:45.873Z,5.18
2022-11-05T13:18:52.531Z,3.35
2022-11-05T13:22:00.339Z,3.35
2022-11-05T13:25:16.921Z,2.85
2022-11-05T13:28:48.993Z,3.03
2022-11-05T13:32:22.540Z,4.15
2022-11-05T13:35:33.164Z,3.38
2022-11-05T13:38:53.936Z,4.47
2022-11-05T13:42:33.590Z,3.63
2022-11-05T13:46:10.836Z,2.83
2022-11-05T13:49:57.670Z,3.00
2022-11-05T13:53:14.635Z,3.03
2022-11-05T13:56:37.536Z,2.78
2022-11-05T14:00:22.415Z,3.10
2022-11-05T14:03:24.622Z,3.80
2022-11-05T14:06:31.531Z,6.72
2022-11-05T14:09:35.901Z,4.20
2022-11-05T14:12:40.179Z,3.78
2022-11-05T14:16:02.045Z,3.57
2022-11-05T14:19:18.787Z,2.95
2022-11-05T14:22:32.764Z,4.65
2022-11-05T14:25:34.859Z,3.17
2022-11-05T14:28:39.321Z,4.70
2022-11-05T14:32:08.738Z,6.53
2022-11-05T14:35:36.367Z,5.07
2022-11-05T14:38:47.208Z,3.80
2022-11-05T14:42:23.289Z,3.95
2022-11-05T14:45:34.208Z,3.93
2022-11-05T14:48:52.815Z,5.20
2022-11-05T14:51:57.583Z,14.43
2022-11-05T14:54:59.637Z,21.37
2022-11-05T14:58:05.744Z,28.60
2022-11-05T15:01:29.778Z,25.27
2022-11-05T15:04:36.799Z,22.97
2022-11-05T15:07:38.944Z,29.47
2022-11-05T15:10:43.256Z,24.60
2022-11-05T15:13:55.528Z,14.37
2022-11-05T15:17:17.253Z,13.90
2022-11-05T15:20:23.671Z,11.90
2022-11-05T15:23:43.371Z,8.50
2022-11-05T15:26:47.947Z,7.07
2022-11-05T15:29:50.324Z,7.27
2022-11-05T15:32:52.626Z,6.20
2022-11-05T15:35:55.213Z,7.10
2022-11-05T15:42:27.874Z,7.37
2022-11-05T15:45:29.806Z,6.50
2022-11-05T15:48:32.988Z,5.80
2022-11-05T15:51:36.112Z,7.60
2022-11-05T15:54:38.460Z,6.30
2022-11-05T15:57:51.072Z,7.67
2022-11-05T16:00:53.626Z,9.67
2022-11-05T16:04:16.453Z,9.33
2022-11-05T16:07:19.192Z,9.40
2022-11-05T16:10:25.465Z,9.77
2022-11-05T16:13:39.539Z,8.50
2022-11-05T16:16:41.620Z,8.77
2022-11-05T16:19:45.371Z,8.57
2022-11-05T16:22:49.874Z,8.80
2022-11-05T16:25:52.121Z,8.10
2022-11-05T16:28:54.349Z,8.30
2022-11-05T16:31:58.260Z,8.83
2022-11-05T16:35:03.583Z,8.47
2022-11-05T16:38:06.340Z,8.50
2022-11-05T16:41:14.601Z,8.50
2022-11-05T16:44:17.043Z,8.77
2022-11-05T16:47:19.992Z,9.20
2022-11-05T16:50:29.932Z,9.30
2022-11-05T16:53:31.892Z,8.80
2022-11-05T16:56:34.841Z,9.33
2022-11-05T16:59:36.746Z,9.40
2022-11-05T17:02:39.065Z,10.07
2022-11-05T17:05:44.043Z,9.73
2022-11-05T17:08:47.267Z,9.30
2022-11-05T17:11:49.325Z,10.43
2022-11-05T17:14:51.533Z,10.43
2022-11-05T17:17:54.939Z,11.57
2022-11-05T17:20:57.320Z,11.27
2022-11-05T17:23:59.283Z,13.83
2022-11-05T17:27:01.573Z,14.80
2022-11-05T17:30:03.990Z,16.37
2022-11-05T17:33:06.278Z,12.97
2022-11-05T17:36:11.601Z,13.73
2022-11-05T17:39:13.954Z,14.50
2022-11-05T17:42:15.936Z,14.93
2022-11-05T17:45:18.583Z,14.00
2022-11-05T17:48:21.366Z,13.67
2022-11-05T17:51:23.663Z,13.07
2022-11-05T17:54:25.656Z,12.40
2022-11-05T17:57:28.595Z,11.57
2022-11-05T18:00:31.071Z,11.53
2022-11-05T18:03:33.844Z,12.30
2022-11-05T18:06:40.508Z,13.03
2022-11-05T18:09:42.770Z,12.93
2022-11-05T18:12:44.999Z,13.20
2022-11-05T18:15:47.318Z,13.03
2022-11-05T18:18:49.336Z,14.57
2022-11-05T18:21:51.572Z,14.57
2022-11-05T18:24:54.737Z,13.13
2022-11-05T18:27:57.087Z,14.53
2022-11-05T18:30:59.024Z,13.90
2022-11-05T18:34:01.441Z,13.77
2022-11-05T18:37:03.596Z,13.50
2022-11-05T18:40:07.014Z,15.03
2022-11-05T18:43:09.137Z,16.87
2022-11-05T18:46:29.280Z,15.23
2022-11-05T18:49:34.380Z,15.30
2022-11-05T18:52:37.299Z,13.00
2022-11-05T18:55:41.947Z,13.40
2022-11-05T18:58:45.070Z,16.00
2022-11-05T19:01:48.073Z,16.97
2022-11-05T19:05:22.132Z,17.00
2022-11-05T19:08:13.838Z,16.83
2022-11-05T19:11:19.499Z,17.60
2022-11-05T19:14:21.387Z,21.10
2022-11-05T19:17:23.704Z,20.57
2022-11-05T19:20:25.642Z,19.07
2022-11-05T19:23:28.214Z,27.97
2022-11-05T19:26:30.723Z,23.43
2022-11-05T19:29:33.043Z,19.03
2022-11-05T19:32:35.921Z,19.53
2022-11-05T19:35:42.304Z,19.40
2022-11-05T19:38:44.555Z,18.20
2022-11-05T19:41:49.094Z,17.03
2022-11-05T19:44:51.118Z,18.33
2022-11-05T19:47:53.729Z,18.77
2022-11-05T19:51:01.614Z,18.57
2022-11-05T19:54:06.836Z,20.13
2022-11-05T19:57:09.285Z,22.70
2022-11-05T20:00:12.734Z,22.83
2022-11-05T20:03:15.301Z,24.03
2022-11-05T20:06:21.506Z,22.60
2022-11-05T20:09:24.108Z,21.50
2022-11-05T20:12:26.938Z,20.87
2022-11-05T20:15:29.218Z,21.20
2022-11-05T20:18:32.118Z,22.07
2022-11-05T20:21:35.172Z,23.10
2022-11-05T20:24:39.228Z,20.03
2022-11-05T20:27:42.154Z,21.50
2022-11-05T20:30:44.982Z,22.73
2022-11-05T20:33:47.758Z,23.40
2022-11-05T20:36:50.687Z,24.10
2022-11-05T20:39:53.472Z,22.30
2022-11-05T20:42:56.582Z,22.93
2022-11-05T20:46:00.371Z,23.20
2022-11-05T20:49:03.397Z,33.60
2022-11-05T20:52:05.687Z,33.40
2022-11-05T20:55:09.232Z,27.23
2022-11-05T20:58:13.195Z,23.13
2022-11-05T21:01:19.235Z,23.50
2022-11-05T21:04:21.643Z,23.53
2022-11-05T21:07:24.130Z,23.70
2022-11-05T21:10:26.376Z,23.60
2022-11-05T21:13:29.173Z,20.70
2022-11-05T21:16:31.393Z,19.43
2022-11-05T21:19:35.013Z,23.17
2022-11-05T21:22:37.393Z,19.27
2022-11-05T21:25:44.374Z,22.13
2022-11-05T21:28:46.652Z,24.20
2022-11-05T21:31:49.796Z,21.13
2022-11-05T21:34:52.420Z,21.87
2022-11-05T21:37:55.506Z,23.40
2022-11-05T21:41:02.868Z,23.53
2022-11-05T21:44:05.632Z,25.17
2022-11-05T21:47:09.536Z,22.57
2022-11-05T21:50:14.529Z,22.33
2022-11-05T21:53:37.389Z,22.60
2022-11-05T21:56:58.410Z,22.73
2022-11-05T22:00:01.505Z,22.33
2022-11-05T22:03:04.308Z,23.23
2022-11-05T22:06:06.727Z,28.30
2022-11-05T22:09:09.247Z,27.40
2022-11-05T22:12:11.433Z,26.63
2022-11-05T22:15:14.038Z,25.00
2022-11-05T22:18:16.065Z,25.90
2022-11-05T22:21:19.065Z,24.83
2022-11-05T22:24:21.642Z,28.43
2022-11-05T22:27:23.936Z,25.00
2022-11-05T22:30:27.123Z,25.73
2022-11-05T22:33:29.238Z,30.13
2022-11-05T22:36:31.857Z,38.73
2022-11-05T22:39:34.577Z,33.43
2022-11-05T22:42:36.603Z,26.13
2022-11-05T22:45:39.982Z,26.77
2022-11-05T22:48:43.052Z,29.73
2022-11-05T22:51:45.994Z,29.47
2022-11-05T22:54:48.217Z,28.70
2022-11-05T22:57:50.336Z,29.67
2022-11-05T23:00:52.304Z,26.70
2022-11-05T23:03:56.359Z,24.00
2022-11-05T23:07:17.010Z,22.47
2022-11-05T23:10:38.141Z,23.63
2022-11-05T23:13:40.072Z,25.03
2022-11-05T23:17:00.913Z,27.33
2022-11-05T23:20:22.378Z,26.33
2022-11-05T23:23:43.199Z,26.70
2022-11-05T23:26:50.790Z,25.43
2022-11-05T23:29:52.935Z,26.90
2022-11-05T23:32:55.898Z,30.07
2022-11-05T23:36:16.606Z,26.57
2022-11-05T23:39:18.544Z,27.07
2022-11-05T23:42:39.487Z,28.83
2022-11-05T23:46:02.996Z,28.60
2022-11-05T23:49:05.147Z,30.30
2022-11-05T23:52:07.502Z,31.20
2022-11-05T23:55:09.928Z,32.43
2022-11-05T23:58:12.354Z,32.50
